| Temp | 76.6 °F 4.4 |
|---|---|
| Daily Min Temp | 44.9 °F 1.1 |
| Time of Min Temp | 0647 |
| Daily Max Temp | 77.9 °F 4.7 |
| Time of Max Temp | 1513 |
| Wind Spd | 4.5 mph 1.7 |
| Wind Dir | WNW | 284 ° |
| Wind Gust | 10.8 mph 4.5 |
| Daily Max Wind | 12.8 mph 2.7 |
| Time of Max Wind | 1244 |
| Max Wind Dir | S | 179 ° |
| RH | 29 % 1 |
| Dew Pt | 41.8 °F 4.4 |
| Solar Rad | 844 W/m2 83 |
| Daily ETo | 0.118 in 0.001 |
| Daily Rain | 0.00 In |
| Yest MinT | 43.7 °F |
| Yest MaxT | 74.0 °F |
| Yest MaxGst | 15.4 mph |
| Yest ETo | 0.17 In |
| Yest Precip | 0.00 In |
| Month Precip | 0.05 In |
| Season Precip | 0.05 In |
| BatVolt | 13.5 V 0.0 |
| MinBV Day | 12.6 V 0.1 |
| Date & Time | Temp (°F) | RH (%) | Dew Pt (°F) | Wind Dir (°) | Wind Spd (mph) | Wind Gust (mph) | Solar Rad (W/m2) | Latest Rain (In) | Precip 24Hr (In) | BatVolt (V) | Daily Rain (In) | Daily Min Temp (°F) | Daily Max Temp (°F) | Daily Max Wind (mph) | Daily ETo (in) |
|---|---|---|---|---|---|---|---|---|---|---|---|---|---|---|---|
| 9/5/26 - 1500 | 74.9 | 30 | 41.6 | NNE | 19 | 6.5 | 11.9 | 731 | 0.00 | - | 13.5 | 0.00 | 44.9 | 76.4 | 12.8 | 0.096 |
| 9/5/26 - 1400 | 74.4 | 33 | 43.2 | NW | 313 | 3.5 | 12.2 | 811 | 0.00 | - | 13.5 | 0.00 | 44.9 | 75.3 | 12.8 | 0.074 |
| 9/5/26 - 1300 | 72.2 | 35 | 42.9 | NNE | 23 | 3.9 | 12.8 | 846 | 0.00 | - | 13.5 | 0.00 | 44.9 | 73.9 | 12.8 | 0.051 |
| 9/5/26 - 1200 | 69.4 | 43 | 46.0 | N | 4 | 4.2 | 8.7 | 781 | 0.00 | - | 13.6 | 0.00 | 44.9 | 71.6 | 8.7 | 0.031 |
| 9/5/26 - 1100 | 65.6 | 55 | 49.0 | NNE | 21 | 3.0 | 7.1 | 654 | 0.00 | - | 13.6 | 0.00 | 44.9 | 67.6 | 7.1 | 0.016 |
| 9/5/26 - 1000 | 60.2 | 67 | 49.0 | NNE | 17 | 2.3 | 6.0 | 483 | 0.00 | - | 13.7 | 0.00 | 44.9 | 63.9 | 6.8 | 0.005 |
| 9/5/26 - 0900 | 56.7 | 70 | 47.0 | NE | 37 | 1.2 | 4.4 | 289 | 0.00 | - | 13.7 | 0.00 | 44.9 | 58.7 | 6.8 | 0.000 |
| 9/5/26 - 0800 | 48.4 | 86 | 44.5 | S | 184 | 3.1 | 5.9 | 96 | 0.00 | - | 13.9 | 0.00 | 44.9 | 52.6 | 6.8 | 0.000 |
| 9/5/26 - 0700 | 45.5 | 91 | 43.2 | S | 187 | 3.5 | 5.6 | 6 | 0.00 | - | 12.6 | 0.00 | 44.9 | 50.4 | 6.8 | 0.000 |
| 9/5/26 - 0600 | 46.1 | 90 | 43.4 | S | 191 | 3.4 | 5.8 | 3 | 0.00 | - | 12.7 | 0.00 | 45.3 | 50.4 | 6.8 | 0.000 |
| 9/5/26 - 0500 | 47.2 | 88 | 43.7 | S | 176 | 3.9 | 6.8 | 3 | 0.00 | - | 12.7 | 0.00 | 46.5 | 50.4 | 6.8 | 0.000 |
| 9/5/26 - 0400 | 47.2 | 88 | 43.7 | S | 175 | 3.6 | 5.5 | 3 | 0.00 | - | 12.8 | 0.00 | 46.5 | 50.4 | 5.5 | 0.000 |
| 9/5/26 - 0300 | 47.7 | 87 | 43.9 | SSE | 167 | 3.2 | 4.2 | 3 | 0.00 | - | 12.8 | 0.00 | 47.2 | 50.4 | 4.6 | 0.000 |
| 9/5/26 - 0200 | 49.2 | 84 | 44.5 | SSE | 165 | 3.0 | 4.6 | 3 | 0.00 | - | 12.8 | 0.00 | 48.3 | 50.4 | 4.6 | 0.000 |
| 9/5/26 - 0100 | 50.6 | 81 | 45.1 | S | 179 | 3.8 | 7.5 | 3 | 0.00 | - | 12.8 | 0.00 | 43.7 | 74.0 | 15.4 | 0.167 |
| 9/5/26 - 0000 | 52.2 | 78 | 45.7 | S | 173 | 3.3 | 5.7 | 3 | 0.00 | - | 12.8 | 0.00 | 43.7 | 74.0 | 15.4 | 0.167 |
| 9/4/26 - 2300 | 53.8 | 77 | 46.7 | S | 172 | 3.2 | 4.5 | 3 | 0.00 | - | 12.9 | 0.00 | 43.7 | 74.0 | 15.4 | 0.167 |
| 9/4/26 - 2200 | 56.3 | 73 | 47.7 | SSW | 203 | 2.9 | 4.6 | 3 | 0.00 | - | 12.9 | 0.00 | 43.7 | 74.0 | 15.4 | 0.167 |
| 9/4/26 - 2100 | 58.6 | 67 | 47.6 | SW | 221 | 2.8 | 5.0 | 3 | 0.00 | - | 12.9 | 0.00 | 43.7 | 74.0 | 15.4 | 0.167 |
| 9/4/26 - 2000 | 63.7 | 54 | 46.8 | WNW | 286 | 3.5 | 11.4 | 19 | 0.00 | - | 13.0 | 0.00 | 43.7 | 74.0 | 15.4 | 0.167 |
| 9/4/26 - 1900 | 69.8 | 40 | 43.9 | W | 273 | 5.7 | 12.7 | 169 | 0.00 | 0.01 | 13.6 | 0.00 | 43.7 | 74.0 | 15.4 | 0.161 |
| 9/4/26 - 1800 | 72.4 | 30 | 39.6 | WSW | 244 | 4.5 | 10.6 | 370 | 0.00 | 0.01 | 13.5 | 0.00 | 43.7 | 74.0 | 15.4 | 0.151 |
| 9/4/26 - 1700 | 73.2 | 28 | 38.5 | W | 264 | 3.8 | 11.5 | 562 | 0.00 | 0.01 | 13.5 | 0.00 | 43.7 | 74.0 | 15.4 | 0.136 |
| 9/4/26 - 1600 | 72.6 | 28 | 37.3 | NW | 312 | 3.4 | 10.2 | 714 | 0.00 | 0.03 | 13.5 | 0.00 | 43.7 | 73.5 | 15.4 | 0.117 |
| 9/4/26 - 1500 | 71.5 | 30 | 38.1 | WSW | 253 | 4.5 | 15.4 | 820 | 0.00 | 0.03 | 13.6 | 0.00 | 43.7 | 73.2 | 15.4 | 0.095 |
| Max | 74.9 | 91 | 49.0 | - | 6.5 | 15.4 | 846 | 0.00 | 0.03 | 13.9 | 0.00 | 48.3 | 76.4 | 15.4 | 0.167 |
| Avg | 60.0 | 61 | 44.1 | - | 3.6 | 8.0 | 295 | 0.00 | 0.02 | 13.2 | - | - | - | - | - |
| Min | 45.5 | 28 | 37.3 | - | 1.2 | 4.2 | 3 | 0.00 | 0.01 | 12.6 | 0.00 | 43.7 | 50.4 | 4.6 | 0.000 |
| Total | - | - | - | - | - | - | - | 0.00 | - | - | - | - | - | - | - |
| Date | Daily Max Temp (°F) | Time of Max Temp | Daily Min Temp (°F) | Time of Min Temp | Daily Rain (In) | Month Precip (In) | Season Precip (In) | Daily ETo (in) | Daily Solar Rad (Cal/cm2) | Daily Max Wind (mph) | Time of Max Wind | Max Wind Dir (°) | Dew Pt (°F) | Daily Max RH (%) | Daily Min RH (%) | Hrs <= 32F (hrs) | Hrs <= 28F (hrs) | Powdery Mildew Stress (pts) | Hrs 70-85F (hrs) | Hrs > 95F (hrs) | Max 1 Min Rain (In) | Max 1 Min Rain Time | Max 15 Min Rain (In) | Max 15 Min Precip Time | Max 60 Min Rain (In) | Max 60 Min Rain Time | MinBV Day (V) |
|---|---|---|---|---|---|---|---|---|---|---|---|---|---|---|---|---|---|---|---|---|---|---|---|---|---|---|---|
| 9/4/26 | 74.0 | 1611 | 43.7 | 0642 | 0.00 | 0.05 | 0.05 | 0.167 | 582 | 15.4 | 1440 | SSW | 210 | 44.4 | 100 | 25 | 0.0 | 0.0 | 20 | 4.82 | 0.00 | - | - | - | - | - | - | 12.5 |
| 9/3/26 | 68.2 | 1250 | 49.4 | 0101 | 0.03 | 0.05 | 0.05 | 0.081 | 235 | 16.0 | 1423 | SSW | 194 | 52.2 | 95 | 46 | 0.0 | 0.0 | 30 | 0.00 | 0.00 | 0.01 | 1911 | 0.01 | 1925 | 0.02 | 1738 | 12.6 |
| 9/2/26 | 72.0 | 1449 | 52.7 | 0647 | 0.02 | 0.02 | 0.02 | 0.129 | 413 | 16.1 | 1549 | SSW | 205 | 49.3 | 97 | 40 | 0.0 | 0.0 | 40 | 0.37 | 0.00 | 0.01 | 0742 | 0.01 | 0756 | 0.01 | 0841 | 12.6 |
| 9/1/26 | 71.4 | 1506 | 49.1 | 0224 | 0.00 | 0.00 | 0.00 | 0.118 | 358 | 16.6 | 1510 | SW | 228 | 47.5 | 91 | 38 | 0.0 | 0.0 | 50 | 0.43 | 0.00 | - | - | - | - | - | - | 12.6 |
| 8/31/26 | 82.3 | 1306 | 50.7 | 0058 | 0.00 | 0.00 | 0.00 | 0.209 | 613 | 16.7 | 1452 | S | 180 | 46.3 | 88 | 27 | 0.0 | 0.0 | 30 | 9.49 | 0.00 | - | - | - | - | - | - | 12.6 |
| 8/30/26 | 89.9 | 1615 | 50.7 | 0711 | 0.00 | 0.00 | 0.00 | 0.219 | 618 | 13.2 | 1825 | S | 176 | 44.1 | 74 | 15 | 0.0 | 0.0 | 40 | 3.28 | 0.00 | - | - | - | - | - | - | 12.6 |
| 8/29/26 | 85.7 | 1543 | 47.2 | 0635 | 0.00 | 0.00 | 0.00 | 0.220 | 629 | 14.7 | 1415 | WNW | 283 | 38.7 | 59 | 16 | 0.0 | 0.0 | 20 | 9.10 | 0.00 | - | - | - | - | - | - | 12.5 |
| Max | 89.9 | - | 52.7 | - | 0.03 | 0.05 | 0.05 | 0.220 | 629 | 16.7 | - | - | 52.2 | 100 | 46 | 0.0 | 0.0 | - | 9.49 | 0.00 | 0.01 | - | 0.01 | - | 0.02 | - | 12.6 |
| Avg | - | - | - | - | - | - | - | - | - | - | - | - | 46.1 | - | - | 0.0 | 0.0 | - | 3.93 | 0.00 | - | - | - | - | - | - | - |
| Min | 68.2 | - | 43.7 | - | 0.00 | 0.00 | 0.00 | 0.081 | 235 | 13.2 | - | - | 38.7 | 59 | 15 | 0.0 | 0.0 | - | 0.00 | 0.00 | 0.01 | - | 0.01 | - | 0.01 | - | 12.5 |
| Total | - | - | - | - | - | - | - | - | - | - | - | - | - | - | - | 0.0 | 0.0 | - | 27.50 | 0.00 | - | - | - | - | - | - | - |
| Date | Chilling <=45F (hrs) | Chill Hrs 32-45F (hrs) | Utah Chilling (Units) | Chill Portions | GDDs (DL) | GDDs (Mx/Mn) | Seas GDDs (DL) | Seas GDDs (Smpl) | Degree Hrs (hrs) |
|---|---|---|---|---|---|---|---|---|---|
| 9/4/26 | 0.9 | 0.9 | 0.0 | 0 | 9.0 | 8.9 | 2,703 | 2,672 | 41.6 |
| 9/3/26 | 0.0 | 0.0 | -4.0 | 0 | 9.2 | 8.8 | 2,694 | 2,664 | 4.4 |
| 9/2/26 | 0.0 | 0.0 | -7.0 | 0 | 10.1 | 12.4 | 2,685 | 2,655 | 18.6 |
| 9/1/26 | 0.0 | 0.0 | -4.5 | 0 | 9.0 | 10.2 | 2,675 | 2,642 | 13.7 |
| 8/31/26 | 0.0 | 0.0 | -10.0 | - | 15.3 | 16.5 | 2,666 | 2,632 | 120.1 |
| 8/30/26 | 0.0 | 0.0 | -13.5 | - | 19.2 | 20.3 | 2,650 | 2,616 | 190.3 |
| 8/29/26 | 0.0 | 0.0 | -10.0 | - | 16.3 | 16.5 | 2,631 | 2,595 | 151.3 |
| 8/28/26 | 0.0 | 0.0 | -16.5 | - | 19.0 | 18.4 | 2,615 | 2,579 | 146.7 |
| 8/27/26 | 0.0 | 0.0 | -19.0 | - | 24.5 | 25.1 | 2,596 | 2,560 | 261.8 |
| 8/26/26 | 0.0 | 0.0 | -14.5 | - | 21.8 | 22.0 | 2,571 | 2,535 | 232.6 |
| Max | 0.9 | 0.9 | 0.0 | 0 | 24.5 | 25.1 | - | - | 261.8 |
| Avg | 0.1 | 0.1 | -9.9 | 0 | 15.3 | 15.9 | - | - | - |
| Min | 0.0 | 0.0 | -19.0 | 0 | 9.0 | 8.8 | - | - | 4.4 |
| Total | 0.9 | 0.9 | -99.0 | - | 153.4 | 159.0 | - | - | - |